^^
Station Historical Data
Daily Summary for January 5, 2018 Units:  English    Metric   Both
« Previous Day
Next Day »
Daily Weekly Monthly Yearly Custom
  High: Low: Average:
Temperature: TemperatureC °F 2.4 °F 3.1 °F
Dew Point: DewpointC °F 1.4 °F 2.2 °F
Humidity: Humidity% 93% 93%
Wind Speed: WindSpeedKMHmph 0.0mph 2.7mph
Wind Gust: WindSpeedGustKMHmph - -
Wind- - SE
Pressure: PressurehPa in 990.1 in -
Precipitation: 12.4 in    
Historical Graphs
 
 
Tabular Data for January 5, 2018
Time Temperature Dew Point Pressure Wind Wind Speed Wind Gust Humidity Rainfall Rate (Hourly) solar Conditions
TemperatureC °F DewpointC °F PressurehPa in Calm     Humidity% HourlyPrecipMM in SoftwareType W/m2 Conditions
00:01 2.4 °F 1.4 °F 992.8 in ESE 4.0 mph 11.1 mph 93% 2.0 in WeatherDisplay:10.37 W/m2 RA
00:03 2.4 °F 1.4 °F 992.8 in NE 5.5 mph 5.6 mph 93% 2.0 in WeatherDisplay:10.37 W/m2 RA
00:04 2.4 °F 1.4 °F 992.8 in East 6.6 mph 16.7 mph 93% 2.0 in WeatherDisplay:10.37 W/m2 RA
00:09 2.4 °F 1.4 °F 992.8 in ESE 7.7 mph 14.8 mph 93% 2.3 in WeatherDisplay:10.37 W/m2 RA
00:14 2.4 °F 1.4 °F 992.8 in ESE 7.6 mph 16.7 mph 93% 2.3 in WeatherDisplay:10.37 W/m2 RA
00:19 2.4 °F 1.4 °F 992.4 in East 0.6 mph 9.3 mph 93% 2.3 in WeatherDisplay:10.37 W/m2 RA
00:24 2.4 °F 1.4 °F 992.4 in ESE 6.9 mph 13.0 mph 93% 2.3 in WeatherDisplay:10.37 W/m2 RA
00:29 2.4 °F 1.4 °F 992.4 in ESE 3.1 mph 5.6 mph 93% 2.3 in WeatherDisplay:10.37 W/m2 RA
00:34 2.4 °F 1.4 °F 992.4 in ENE 6.1 mph 14.8 mph 93% 2.3 in WeatherDisplay:10.37 W/m2 RA
00:38 2.4 °F 1.4 °F 992.4 in SE 8.2 mph 18.5 mph 93% 2.3 in WeatherDisplay:10.37 W/m2 RA
00:39 2.4 °F 1.4 °F 992.4 in SE 6.4 mph 11.1 mph 93% 2.3 in WeatherDisplay:10.37 W/m2 RA
00:44 2.5 °F 1.5 °F 992.1 in SSE 5.1 mph 11.1 mph 93% 2.0 in WeatherDisplay:10.37 W/m2 RA
00:49 2.7 °F 1.7 °F 992.1 in South 6.6 mph 13.0 mph 93% 1.8 in WeatherDisplay:10.37 W/m2 FEW
00:50 2.7 °F 1.7 °F 992.1 in East 7.6 mph 14.8 mph 93% 1.8 in WeatherDisplay:10.37 W/m2 FEW
00:56 2.7 °F 1.7 °F 992.1 in SE 8.0 mph 14.8 mph 93% 1.5 in WeatherDisplay:10.37 W/m2 FEW
01:01 2.8 °F 1.8 °F 992.1 in ESE 4.7 mph 11.1 mph 93% 1.3 in WeatherDisplay:10.37 W/m2 FEW
01:06 2.8 °F 1.8 °F 992.1 in ESE 9.0 mph 18.5 mph 93% 1.5 in WeatherDisplay:10.37 W/m2 RA
01:12 2.9 °F 1.9 °F 992.1 in ENE 9.7 mph 18.5 mph 93% 1.3 in WeatherDisplay:10.37 W/m2 RA
01:17 2.9 °F 1.9 °F 992.1 in SSW 8.8 mph 14.8 mph 93% 1.0 in WeatherDisplay:10.37 W/m2 FEW
01:22 2.9 °F 1.9 °F 992.1 in South 9.8 mph 14.8 mph 93% 0.8 in WeatherDisplay:10.37 W/m2 FEW
01:27 2.9 °F 1.9 °F 992.1 in East 4.5 mph 9.3 mph 93% 0.5 in WeatherDisplay:10.37 W/m2 FEW
01:32 2.9 °F 1.9 °F 991.8 in South 2.7 mph 14.8 mph 93% 0.5 in WeatherDisplay:10.37 W/m2 FEW
01:38 2.9 °F 1.9 °F 991.8 in SE 12.4 mph 20.4 mph 93% 0.3 in WeatherDisplay:10.37 W/m2 FEW
01:44 3.0 °F 2.0 °F 991.8 in ESE 4.5 mph 7.4 mph 93% 0.3 in WeatherDisplay:10.37 W/m2 FEW
01:50 3.0 °F 2.0 °F 991.8 in SE 3.2 mph 11.1 mph 93% 0.3 in WeatherDisplay:10.37 W/m2 FEW
01:56 3.0 °F 2.0 °F 991.8 in SSE 8.8 mph 14.8 mph 93% 0.3 in WeatherDisplay:10.37 W/m2 FEW
02:01 3.0 °F 2.0 °F 991.8 in SE 3.5 mph 11.1 mph 93% 0.3 in WeatherDisplay:10.37 W/m2 FEW
02:06 3.1 °F 2.1 °F 991.8 in SSE 6.8 mph 14.8 mph 93% 0.0 in WeatherDisplay:10.37 W/m2 FEW
02:11 3.1 °F 2.1 °F 991.8 in SE 4.5 mph 12.9 mph 93% 0.0 in WeatherDisplay:10.37 W/m2 FEW
02:17 3.1 °F 2.1 °F 991.8 in SE 1.0 mph 5.6 mph 93% 0.0 in WeatherDisplay:10.37 W/m2 FEW
02:22 3.1 °F 2.1 °F 991.4 in East 1.9 mph 5.6 mph 93% 0.0 in WeatherDisplay:10.37 W/m2 FEW
02:28 3.1 °F 2.1 °F 991.8 in ESE 8.0 mph 13.0 mph 93% 0.3 in WeatherDisplay:10.37 W/m2 RA
02:33 3.1 °F 2.1 °F 991.4 in ESE 7.7 mph 11.3 mph 93% 0.3 in WeatherDisplay:10.37 W/m2 RA
02:38 3.0 °F 2.0 °F 991.4 in SSE 0.5 mph 5.6 mph 93% 0.3 in WeatherDisplay:10.37 W/m2 FEW
02:43 3.0 °F 2.0 °F 991.4 in ESE 3.7 mph 13.0 mph 93% 0.3 in WeatherDisplay:10.37 W/m2 FEW
02:49 3.0 °F 2.0 °F 991.4 in ESE 5.1 mph 11.3 mph 93% 0.5 in WeatherDisplay:10.37 W/m2 RA
02:54 3.0 °F 2.0 °F 991.4 in ESE 4.0 mph 11.3 mph 93% 0.5 in WeatherDisplay:10.37 W/m2 RA
02:59 3.0 °F 2.0 °F 991.4 in SE 3.7 mph 8.0 mph 93% 0.5 in WeatherDisplay:10.37 W/m2 FEW
03:00 3.0 °F 2.0 °F 991.4 in SE 7.4 mph 8.0 mph 93% 0.5 in WeatherDisplay:10.37 W/m2 FEW
03:05 3.0 °F 2.0 °F 991.4 in SE 4.7 mph 11.1 mph 93% 0.5 in WeatherDisplay:10.37 W/m2 RA
03:10 3.0 °F 2.0 °F 991.4 in ESE 7.4 mph 14.8 mph 93% 0.5 in WeatherDisplay:10.37 W/m2 RA
03:15 3.0 °F 2.0 °F 991.4 in ENE 0.5 mph 5.6 mph 93% 0.8 in WeatherDisplay:10.37 W/m2 RA
03:16 3.0 °F 2.0 °F 991.4 in ENE 10.5 mph 18.5 mph 93% 0.8 in WeatherDisplay:10.37 W/m2 RA
03:21 3.0 °F 2.0 °F 991.4 in East 10.1 mph 20.4 mph 93% 1.0 in WeatherDisplay:10.37 W/m2 RA
03:26 3.0 °F 2.0 °F 991.4 in East 5.8 mph 9.3 mph 93% 0.8 in WeatherDisplay:10.37 W/m2 RA
03:31 3.0 °F 2.0 °F 991.4 in Calm   3.7 mph 93% 1.0 in WeatherDisplay:10.37 W/m2 RA
03:36 2.9 °F 1.9 °F 991.4 in SE 3.9 mph 11.1 mph 93% 1.0 in WeatherDisplay:10.37 W/m2 RA
03:42 2.9 °F 1.9 °F 991.4 in ESE 3.1 mph 9.7 mph 93% 1.0 in WeatherDisplay:10.37 W/m2 FEW
03:49 3.0 °F 2.0 °F 991.1 in NNE 3.7 mph 11.1 mph 93% 1.0 in WeatherDisplay:10.37 W/m2 RA
03:55 3.0 °F 2.0 °F 991.1 in SE 5.8 mph 9.3 mph 93% 1.3 in WeatherDisplay:10.37 W/m2 RA
03:57 3.0 °F 2.0 °F 991.1 in SE 4.2 mph 8.0 mph 93% 1.3 in WeatherDisplay:10.37 W/m2 RA
04:02 2.9 °F 1.9 °F 991.1 in Calm     93% 1.3 in WeatherDisplay:10.37 W/m2 FEW
04:04 2.9 °F 1.9 °F 991.1 in Calm     93% 1.0 in WeatherDisplay:10.37 W/m2 FEW
04:10 2.9 °F 1.9 °F 991.1 in SSW 2.3 mph 5.6 mph 93% 1.3 in WeatherDisplay:10.37 W/m2 RA
04:15 2.9 °F 1.9 °F 991.1 in Calm   9.3 mph 93% 1.0 in WeatherDisplay:10.37 W/m2 RA
04:20 2.9 °F 1.9 °F 991.1 in ESE 2.3 mph 7.4 mph 93% 0.8 in WeatherDisplay:10.37 W/m2 FEW
04:25 2.9 °F 1.9 °F 991.1 in SE 3.9 mph 13.0 mph 93% 0.8 in WeatherDisplay:10.37 W/m2 FEW
04:30 2.9 °F 1.9 °F 991.1 in ESE 8.0 mph 14.8 mph 93% 0.5 in WeatherDisplay:10.37 W/m2 FEW
04:31 2.9 °F 1.9 °F 991.1 in SE 7.2 mph 13.0 mph 93% 0.5 in WeatherDisplay:10.37 W/m2 FEW
04:36 2.9 °F 1.9 °F 991.1 in South 2.9 mph 7.4 mph 93% 0.5 in WeatherDisplay:10.37 W/m2 FEW
04:41 2.9 °F 1.9 °F 990.7 in SSW 2.6 mph 9.3 mph 93% 0.5 in WeatherDisplay:10.37 W/m2 FEW
04:46 2.9 °F 1.9 °F 990.7 in SE 1.3 mph 6.4 mph 93% 0.5 in WeatherDisplay:10.37 W/m2 RA
04:51 3.0 °F 2.0 °F 990.7 in SE 4.2 mph 11.1 mph 93% 0.5 in WeatherDisplay:10.37 W/m2 RA
04:56 3.1 °F 2.1 °F 990.7 in Calm     93% 0.5 in WeatherDisplay:10.37 W/m2 FEW
05:01 3.1 °F 2.1 °F 990.7 in South 6.6 mph 13.0 mph 93% 0.5 in WeatherDisplay:10.37 W/m2 FEW
05:06 3.1 °F 2.1 °F 990.7 in SE 2.6 mph 2.6 mph 93% 0.3 in WeatherDisplay:10.37 W/m2 FEW
05:11 3.1 °F 2.1 °F 990.7 in ENE 4.0 mph 7.4 mph 93% 0.5 in WeatherDisplay:10.37 W/m2 RA
05:16 3.1 °F 2.1 °F 990.7 in ESE 0.2 mph 9.3 mph 93% 0.5 in WeatherDisplay:10.37 W/m2 RA
05:21 3.1 °F 2.1 °F 990.7 in Calm     93% 0.5 in WeatherDisplay:10.37 W/m2 RA
05:26 3.1 °F 2.1 °F 990.7 in SSW 6.4 mph 9.3 mph 93% 0.5 in WeatherDisplay:10.37 W/m2 RA
05:31 3.1 °F 2.1 °F 991.1 in SE 0.8 mph 8.0 mph 93% 0.8 in WeatherDisplay:10.37 W/m2 RA
05:36 3.1 °F 2.1 °F 990.7 in Calm   11.1 mph 93% 0.8 in WeatherDisplay:10.37 W/m2 RA
05:41 3.1 °F 2.1 °F 990.7 in SE 3.4 mph 5.6 mph 93% 0.8 in WeatherDisplay:10.37 W/m2 FEW
05:43 3.1 °F 2.1 °F 990.7 in ESE 0.6 mph 8.0 mph 93% 0.5 in WeatherDisplay:10.37 W/m2 FEW
05:48 3.1 °F 2.1 °F 990.7 in South 2.3 mph 9.3 mph 93% 0.5 in WeatherDisplay:10.37 W/m2 FEW
05:53 3.1 °F 2.1 °F 990.7 in SSE 3.9 mph 18.5 mph 93% 0.8 in WeatherDisplay:10.37 W/m2 RA
05:58 3.1 °F 2.1 °F 990.7 in SE 1.9 mph 1.9 mph 93% 0.8 in WeatherDisplay:10.37 W/m2 RA
06:00 3.1 °F 2.1 °F 990.7 in SSE 3.9 mph 7.4 mph 93% 0.8 in WeatherDisplay:10.37 W/m2 FEW
06:05 3.1 °F 2.1 °F 990.7 in South 3.1 mph 7.4 mph 93% 0.8 in WeatherDisplay:10.37 W/m2 FEW
06:10 3.1 °F 2.1 °F 990.7 in SSE 1.6 mph 5.6 mph 93% 0.8 in WeatherDisplay:10.37 W/m2 RA
06:15 3.1 °F 2.1 °F 990.7 in SSW 4.5 mph 9.7 mph 93% 0.8 in WeatherDisplay:10.37 W/m2 RA
06:20 3.2 °F 2.2 °F 990.7 in SSE 2.4 mph 5.6 mph 93% 0.5 in WeatherDisplay:10.37 W/m2 FEW
06:22 3.1 °F 2.1 °F 990.7 in Calm     93% 0.5 in WeatherDisplay:10.37 W/m2 FEW
06:27 3.1 °F 2.1 °F 990.7 in SSE 4.0 mph 16.7 mph 93% 0.5 in WeatherDisplay:10.37 W/m2 FEW
06:29 3.1 °F 2.1 °F 991.1 in South 3.9 mph 18.5 mph 93% 0.5 in WeatherDisplay:10.37 W/m2 FEW
06:34 3.1 °F 2.1 °F 991.1 in SSE 3.2 mph 9.3 mph 93% 0.5 in WeatherDisplay:10.37 W/m2 FEW
06:39 3.1 °F 2.1 °F 991.1 in SSE 4.5 mph 13.0 mph 93% 0.5 in WeatherDisplay:10.37 W/m2 FEW
06:44 3.1 °F 2.1 °F 991.1 in SE 6.1 mph 11.3 mph 93% 0.5 in WeatherDisplay:10.37 W/m2 RA
06:46 3.1 °F 2.1 °F 991.1 in SE 2.9 mph 11.3 mph 93% 0.5 in WeatherDisplay:10.37 W/m2 RA
06:51 3.1 °F 2.1 °F 991.1 in Calm     93% 0.5 in WeatherDisplay:10.37 W/m2 FEW
06:56 3.2 °F 2.2 °F 991.1 in SSE 1.9 mph 11.1 mph 93% 0.5 in WeatherDisplay:10.37 W/m2 FEW
07:01 3.2 °F 2.2 °F 991.1 in SSE 3.5 mph 6.4 mph 93% 0.5 in WeatherDisplay:10.37 W/m2 FEW
07:06 3.1 °F 2.1 °F 991.1 in ESE 0.2 mph 3.2 mph 93% 0.5 in WeatherDisplay:10.37 W/m2 FEW
07:10 3.1 °F 2.1 °F 991.1 in Calm     93% 0.3 in WeatherDisplay:10.37 W/m2 FEW
07:15 3.1 °F 2.1 °F 991.1 in South 3.7 mph 9.3 mph 93% 0.3 in WeatherDisplay:10.37 W/m2 FEW
07:20 3.1 °F 2.1 °F 991.1 in Calm   3.7 mph 93% 0.3 in WeatherDisplay:10.37 W/m2 FEW
07:27 3.1 °F 2.1 °F 991.1 in SE 1.4 mph 7.4 mph 93% 0.5 in WeatherDisplay:10.37 W/m2 RA
07:28 3.1 °F 2.1 °F 991.1 in SE 5.8 mph 11.3 mph 93% 0.5 in WeatherDisplay:10.37 W/m2 RA
07:33 3.1 °F 2.1 °F 991.1 in ESE 2.4 mph 5.6 mph 93% 0.5 in WeatherDisplay:10.37 W/m2 FEW
07:38 3.2 °F 2.2 °F 991.1 in SE 0.5 mph 5.6 mph 93% 0.5 in WeatherDisplay:10.37 W/m2 FEW
07:43 3.1 °F 2.1 °F 991.4 in SSE 2.4 mph 7.4 mph 93% 0.3 in WeatherDisplay:10.37 W/m2 FEW
07:48 3.2 °F 2.2 °F 991.4 in SSE 3.1 mph 5.6 mph 93% 0.3 in WeatherDisplay:10.37 W/m2 FEW
07:53 3.2 °F 2.2 °F 991.4 in Calm   9.3 mph 93% 0.3 in WeatherDisplay:10.37 W/m2 FEW
07:59 3.1 °F 2.1 °F 991.4 in South 5.0 mph 11.1 mph 93% 0.3 in WeatherDisplay:10.37 W/m2 FEW
08:04 3.1 °F 2.1 °F 991.4 in SSE 3.7 mph 13.0 mph 93% 0.3 in WeatherDisplay:10.37 W/m2 FEW
08:09 3.2 °F 2.2 °F 991.4 in East 1.6 mph 5.6 mph 93% 0.3 in WeatherDisplay:10.37 W/m2 FEW
08:15 3.2 °F 2.2 °F 991.4 in South 2.7 mph 18.5 mph 93% 0.3 in WeatherDisplay:10.37 W/m2 FEW
08:20 3.2 °F 2.2 °F 991.4 in Calm     93% 0.3 in WeatherDisplay:10.37 W/m2 FEW
08:26 3.2 °F 2.2 °F 991.4 in SSW 1.6 mph 3.2 mph 93% 0.0 in WeatherDisplay:10.37 W/m2 FEW
08:27 3.2 °F 2.2 °F 991.4 in SSW 1.8 mph 13.0 mph 93% 0.0 in WeatherDisplay:10.37 W/m2 FEW
08:32 3.2 °F 2.2 °F 991.4 in Calm   1.9 mph 93% 0.0 in WeatherDisplay:10.37 W/m2 FEW
08:33 3.2 °F 2.2 °F 991.4 in SSE 1.3 mph 5.6 mph 93% 0.0 in WeatherDisplay:10.37 W/m2 FEW
08:39 3.2 °F 2.2 °F 991.8 in SSE 3.1 mph 6.4 mph 93% 0.0 in WeatherDisplay:10.37 W/m2 FEW
08:44 3.2 °F 2.2 °F 991.4 in SSE 6.1 mph 12.9 mph 93% 0.3 in WeatherDisplay:10.37 W/m2 RA
08:49 3.2 °F 2.2 °F 991.8 in SE 2.7 mph 5.6 mph 93% 0.3 in WeatherDisplay:10.37 W/m2 RA
08:54 3.2 °F 2.2 °F 991.8 in SSE 1.6 mph 3.2 mph 93% 0.3 in WeatherDisplay:10.37 W/m2 FEW
08:59 3.2 °F 2.2 °F 991.8 in South 0.6 mph 3.7 mph 93% 0.3 in WeatherDisplay:10.37 W/m2 FEW
09:04 3.2 °F 2.2 °F 991.8 in SSE 2.4 mph 5.6 mph 93% 0.5 in WeatherDisplay:10.37 W/m2 RA
09:05 3.2 °F 2.2 °F 991.8 in SE 2.7 mph 9.3 mph 93% 0.5 in WeatherDisplay:10.37 W/m2 RA
09:10 3.2 °F 2.2 °F 991.8 in Calm     93% 0.5 in WeatherDisplay:10.37 W/m2 RA
09:11 3.2 °F 2.2 °F 991.8 in Calm     93% 0.5 in WeatherDisplay:10.37 W/m2 RA
09:16 3.2 °F 2.2 °F 991.8 in South 7.7 mph 16.7 mph 93% 0.5 in WeatherDisplay:10.37 W/m2 FEW
09:21 3.2 °F 2.2 °F 991.8 in South 2.4 mph 7.4 mph 93% 0.5 in WeatherDisplay:10.37 W/m2 RA
09:26 3.2 °F 2.2 °F 992.1 in SSE 3.1 mph 5.6 mph 93% 0.5 in WeatherDisplay:10.37 W/m2 RA
09:31 3.2 °F 2.2 °F 992.1 in SSE 4.2 mph 5.6 mph 93% 0.5 in WeatherDisplay:10.37 W/m2 FEW
09:36 3.2 °F 2.2 °F 992.1 in SSW 0.6 mph 5.6 mph 93% 0.5 in WeatherDisplay:10.37 W/m2 FEW
09:41 3.3 °F 2.3 °F 992.1 in South 1.6 mph 9.3 mph 93% 0.5 in WeatherDisplay:10.37 W/m2 FEW
09:46 3.3 °F 2.3 °F 992.1 in SSE 3.1 mph 9.3 mph 93% 0.5 in WeatherDisplay:10.37 W/m2 FEW
09:52 3.3 °F 2.3 °F 992.1 in SSE 1.0 mph 5.6 mph 93% 0.5 in WeatherDisplay:10.37 W/m2 RA
09:57 3.3 °F 2.3 °F 992.1 in SE 2.6 mph 6.4 mph 93% 0.8 in WeatherDisplay:10.37 W/m2 RA
10:03 3.2 °F 2.2 °F 992.1 in Calm   1.6 mph 93% 0.5 in WeatherDisplay:10.37 W/m2 FEW
10:08 3.3 °F 2.3 °F 992.1 in SSE 6.0 mph 16.7 mph 93% 0.5 in WeatherDisplay:10.37 W/m2 FEW
10:13 3.3 °F 2.3 °F 992.1 in South 6.1 mph 14.8 mph 93% 0.5 in WeatherDisplay:10.37 W/m2 FEW
10:18 3.2 °F 2.2 °F 992.1 in East 1.8 mph 5.6 mph 93% 0.5 in WeatherDisplay:10.37 W/m2 FEW
10:24 3.2 °F 2.2 °F 992.4 in Calm     93% 0.5 in WeatherDisplay:10.37 W/m2 FEW
10:29 3.2 °F 2.2 °F 992.4 in SSE 4.2 mph 9.7 mph 93% 0.5 in WeatherDisplay:10.37 W/m2 FEW
10:32 3.2 °F 2.2 °F 992.4 in SSW 0.6 mph 5.6 mph 93% 0.5 in WeatherDisplay:10.37 W/m2 FEW
10:38 3.3 °F 2.3 °F 992.4 in SSW 2.9 mph 13.0 mph 93% 0.5 in WeatherDisplay:10.37 W/m2 FEW
10:40 3.3 °F 2.3 °F 992.4 in ENE 3.9 mph 11.1 mph 93% 0.5 in WeatherDisplay:10.37 W/m2 FEW
10:45 3.3 °F 2.3 °F 992.4 in Calm     93% 0.5 in WeatherDisplay:10.37 W/m2 FEW
10:50 3.3 °F 2.3 °F 992.4 in Calm     93% 0.3 in WeatherDisplay:10.37 W/m2 FEW
10:55 3.2 °F 2.2 °F 992.4 in Calm   3.7 mph 93% 0.0 in WeatherDisplay:10.37 W/m2 FEW
11:00 3.2 °F 2.2 °F 992.4 in SE 4.5 mph 14.5 mph 93% 0.0 in WeatherDisplay:10.37 W/m2 FEW
11:05 3.2 °F 2.2 °F 992.4 in SE 3.9 mph 7.4 mph 93% 0.0 in WeatherDisplay:10.37 W/m2 FEW
11:10 3.3 °F 2.3 °F 992.8 in South 2.6 mph 2.6 mph 93% 0.0 in WeatherDisplay:10.37 W/m2 FEW
11:13 3.3 °F 2.3 °F 992.8 in South 3.9 mph 13.0 mph 93% 0.0 in WeatherDisplay:10.37 W/m2 FEW
11:19 3.3 °F 2.3 °F 992.8 in Calm   5.6 mph 93% 0.0 in WeatherDisplay:10.37 W/m2 FEW
11:24 3.3 °F 2.3 °F 992.8 in SSE 1.1 mph 5.6 mph 93% 0.0 in WeatherDisplay:10.37 W/m2 FEW
11:29 3.3 °F 2.3 °F 992.8 in South 1.8 mph 5.6 mph 93% 0.3 in WeatherDisplay:10.37 W/m2 RA
11:35 3.3 °F 2.3 °F 992.8 in Calm     93% 0.3 in WeatherDisplay:10.37 W/m2 RA
11:40 3.3 °F 2.3 °F 992.8 in Calm     93% 0.3 in WeatherDisplay:10.37 W/m2 FEW
11:45 3.3 °F 2.3 °F 992.8 in SSE 4.5 mph 9.7 mph 93% 0.3 in WeatherDisplay:10.37 W/m2 FEW
11:56 3.3 °F 2.3 °F 992.8 in South 1.0 mph 1.9 mph 93% 0.3 in WeatherDisplay:10.37 W/m2 FEW
11:57 3.3 °F 2.3 °F 992.8 in South 0.3 mph 5.6 mph 93% 0.3 in WeatherDisplay:10.37 W/m2 FEW
12:02 3.3 °F 2.3 °F 992.8 in ESE 1.1 mph 5.6 mph 93% 0.3 in WeatherDisplay:10.37 W/m2 FEW
12:08 3.3 °F 2.3 °F 992.8 in South 1.8 mph 5.6 mph 93% 0.3 in WeatherDisplay:10.37 W/m2 FEW
12:09 3.3 °F 2.3 °F 992.8 in Calm     93% 0.3 in WeatherDisplay:10.37 W/m2 FEW
12:14 3.3 °F 2.3 °F 992.8 in SSE 1.0 mph 5.6 mph 93% 0.3 in WeatherDisplay:10.37 W/m2 FEW
12:19 3.3 °F 2.3 °F 992.8 in South 1.1 mph 5.6 mph 93% 0.3 in WeatherDisplay:10.37 W/m2 FEW
12:24 3.3 °F 2.3 °F 992.8 in Calm     93% 0.3 in WeatherDisplay:10.37 W/m2 FEW
12:29 3.3 °F 2.3 °F 992.4 in SSE 4.5 mph 9.3 mph 93% 0.0 in WeatherDisplay:10.37 W/m2 FEW
12:34 3.3 °F 2.3 °F 992.4 in SE 1.9 mph 13.0 mph 93% 0.0 in WeatherDisplay:10.37 W/m2 FEW
12:40 3.3 °F 2.3 °F 992.4 in SE 0.8 mph 5.6 mph 93% 0.0 in WeatherDisplay:10.37 W/m2 FEW
12:45 3.2 °F 2.2 °F 992.4 in SE 4.2 mph 13.0 mph 93% 0.0 in WeatherDisplay:10.37 W/m2 FEW
12:51 3.2 °F 2.2 °F 992.8 in South 2.3 mph 5.6 mph 93% 0.3 in WeatherDisplay:10.37 W/m2 RA
12:52 3.2 °F 2.2 °F 992.8 in South 0.8 mph 5.6 mph 93% 0.3 in WeatherDisplay:10.37 W/m2 RA
12:56 3.2 °F 2.2 °F 992.4 in SE 0.6 mph 7.4 mph 93% 0.3 in WeatherDisplay:10.37 W/m2 RA
12:57 3.2 °F 2.2 °F 992.4 in Calm     93% 0.3 in WeatherDisplay:10.37 W/m2 RA
13:03 3.2 °F 2.2 °F 992.4 in South 4.0 mph 5.6 mph 93% 0.3 in WeatherDisplay:10.37 W/m2 FEW
13:08 3.2 °F 2.2 °F 992.8 in SE 1.0 mph 4.8 mph 93% 0.5 in WeatherDisplay:10.37 W/m2 RA
13:13 3.2 °F 2.2 °F 992.8 in South 3.7 mph 11.1 mph 93% 0.5 in WeatherDisplay:10.37 W/m2 RA
13:18 3.2 °F 2.2 °F 992.8 in South 1.0 mph 7.4 mph 93% 0.5 in WeatherDisplay:10.37 W/m2 FEW
13:19 3.2 °F 2.2 °F 992.4 in Calm     93% 0.5 in WeatherDisplay:10.37 W/m2 FEW
13:25 3.2 °F 2.2 °F 992.4 in SSE 0.5 mph 5.6 mph 93% 0.5 in WeatherDisplay:10.37 W/m2 RA
13:31 3.2 °F 2.2 °F 992.4 in SSE 2.4 mph 7.4 mph 93% 0.5 in WeatherDisplay:10.37 W/m2 FEW
13:36 3.2 °F 2.2 °F 992.4 in SE 1.0 mph 11.3 mph 93% 0.5 in WeatherDisplay:10.37 W/m2 FEW
13:41 3.2 °F 2.2 °F 992.4 in SSE 0.3 mph 3.7 mph 93% 0.5 in WeatherDisplay:10.37 W/m2 FEW
13:46 3.1 °F 2.1 °F 992.4 in ESE 1.4 mph 8.0 mph 93% 0.5 in WeatherDisplay:10.37 W/m2 FEW
13:47 3.2 °F 2.2 °F 992.4 in ESE 3.2 mph 7.4 mph 93% 0.5 in WeatherDisplay:10.37 W/m2 FEW
13:52 3.1 °F 2.1 °F 992.4 in Calm     93% 0.5 in WeatherDisplay:10.37 W/m2 RA
13:57 3.1 °F 2.1 °F 992.4 in Calm     93% 0.5 in WeatherDisplay:10.37 W/m2 RA
14:02 3.1 °F 2.1 °F 992.4 in SE 4.5 mph 13.0 mph 93% 0.5 in WeatherDisplay:10.37 W/m2 FEW
14:08 3.1 °F 2.1 °F 992.4 in Calm     93% 0.5 in WeatherDisplay:10.37 W/m2 RA
14:14 3.1 °F 2.1 °F 992.4 in SSE 1.8 mph 9.3 mph 93% 0.5 in WeatherDisplay:10.37 W/m2 RA
14:19 3.1 °F 2.1 °F 992.4 in Calm   5.6 mph 93% 0.5 in WeatherDisplay:10.37 W/m2 FEW
14:20 3.1 °F 2.1 °F 992.4 in Calm   3.2 mph 93% 0.5 in WeatherDisplay:10.37 W/m2 FEW
14:26 3.1 °F 2.1 °F 992.4 in Calm     93% 0.5 in WeatherDisplay:10.37 W/m2 FEW
14:28 3.1 °F 2.1 °F 992.4 in SE 0.5 mph 3.2 mph 93% 0.5 in WeatherDisplay:10.37 W/m2 FEW
14:34 3.1 °F 2.1 °F 992.4 in South 6.8 mph 16.7 mph 93% 0.5 in WeatherDisplay:10.37 W/m2 RA
14:39 3.1 °F 2.1 °F 992.4 in South 1.0 mph 5.6 mph 93% 0.5 in WeatherDisplay:10.37 W/m2 RA
14:44 3.1 °F 2.1 °F 992.4 in South 1.9 mph 5.6 mph 93% 0.5 in WeatherDisplay:10.37 W/m2 FEW
14:49 3.1 °F 2.1 °F 992.4 in SE 8.7 mph 16.7 mph 93% 0.5 in WeatherDisplay:10.37 W/m2 FEW
14:54 3.2 °F 2.2 °F 992.4 in SE 1.4 mph 3.2 mph 93% 0.5 in WeatherDisplay:10.37 W/m2 FEW
14:56 3.2 °F 2.2 °F 992.4 in Calm   5.6 mph 93% 0.5 in WeatherDisplay:10.37 W/m2 FEW
15:01 3.2 °F 2.2 °F 992.4 in Calm     93% 0.5 in WeatherDisplay:10.37 W/m2 FEW
15:07 3.2 °F 2.2 °F 992.4 in SSE 0.2 mph 1.9 mph 93% 0.5 in WeatherDisplay:10.37 W/m2 FEW
15:12 3.2 °F 2.2 °F 992.4 in SE 1.4 mph 5.6 mph 93% 0.3 in WeatherDisplay:10.37 W/m2 FEW
15:17 3.2 °F 2.2 °F 992.4 in Calm   4.8 mph 93% 0.3 in WeatherDisplay:10.37 W/m2 FEW
15:22 3.2 °F 2.2 °F 992.4 in SE 4.0 mph 7.4 mph 93% 0.3 in WeatherDisplay:10.37 W/m2 FEW
15:27 3.3 °F 2.3 °F 992.4 in ESE 2.6 mph 4.8 mph 93% 0.3 in WeatherDisplay:10.37 W/m2 FEW
15:33 3.3 °F 2.3 °F 992.4 in ESE 2.9 mph 5.6 mph 93% 0.0 in WeatherDisplay:10.37 W/m2 FEW
15:38 3.3 °F 2.3 °F 992.4 in Calm   5.6 mph 93% 0.0 in WeatherDisplay:10.37 W/m2 FEW
15:44 3.3 °F 2.3 °F 992.4 in SE 4.2 mph 11.1 mph 93% 0.0 in WeatherDisplay:10.37 W/m2 FEW
15:49 3.3 °F 2.3 °F 992.4 in SSE 1.3 mph 5.6 mph 93% 0.0 in WeatherDisplay:10.37 W/m2 FEW
15:55 3.3 °F 2.3 °F 992.4 in Calm     93% 0.0 in WeatherDisplay:10.37 W/m2 FEW
15:57 3.3 °F 2.3 °F 992.4 in SSE 1.6 mph 5.6 mph 93% 0.0 in WeatherDisplay:10.37 W/m2 FEW
16:02 3.3 °F 2.3 °F 992.4 in SSW 2.6 mph 13.0 mph 93% 0.0 in WeatherDisplay:10.37 W/m2 FEW
16:07 3.4 °F 2.4 °F 992.4 in SE 0.5 mph 5.6 mph 93% 0.3 in WeatherDisplay:10.37 W/m2 RA
16:12 3.4 °F 2.4 °F 992.4 in ESE 1.1 mph 4.8 mph 93% 0.3 in WeatherDisplay:10.37 W/m2 RA
16:18 3.4 °F 2.4 °F 992.4 in SE 0.2 mph 1.9 mph 93% 0.3 in WeatherDisplay:10.37 W/m2 FEW
16:23 3.3 °F 2.3 °F 992.4 in ESE 5.3 mph 11.1 mph 93% 0.3 in WeatherDisplay:10.37 W/m2 FEW
16:28 3.4 °F 2.4 °F 992.4 in SE 4.5 mph 9.3 mph 93% 0.3 in WeatherDisplay:10.37 W/m2 FEW
16:31 3.4 °F 2.4 °F 992.4 in South 6.3 mph 14.8 mph 93% 0.3 in WeatherDisplay:10.37 W/m2 FEW
16:37 3.4 °F 2.4 °F 992.4 in SSE 2.1 mph 8.0 mph 93% 0.3 in WeatherDisplay:10.37 W/m2 FEW
16:42 3.4 °F 2.4 °F 992.4 in ESE 1.1 mph 13.0 mph 93% 0.3 in WeatherDisplay:10.37 W/m2 FEW
16:47 3.4 °F 2.4 °F 992.4 in ESE 0.3 mph 5.6 mph 93% 0.3 in WeatherDisplay:10.37 W/m2 FEW
16:52 3.4 °F 2.4 °F 992.4 in Calm     93% 0.3 in WeatherDisplay:10.37 W/m2 FEW
17:03 3.4 °F 2.4 °F 992.1 in SSE 5.0 mph 7.4 mph 93% 0.3 in WeatherDisplay:10.37 W/m2 FEW
17:06 3.4 °F 2.4 °F 992.1 in SE 2.4 mph 7.4 mph 93% 0.0 in WeatherDisplay:10.37 W/m2 FEW
17:12 3.4 °F 2.4 °F 992.1 in South 4.2 mph 5.6 mph 93% 0.0 in WeatherDisplay:10.37 W/m2 FEW
17:18 3.5 °F 2.5 °F 992.1 in SE 1.9 mph 6.4 mph 93% 0.0 in WeatherDisplay:10.37 W/m2 FEW
17:20 3.5 °F 2.5 °F 992.1 in SSE 6.3 mph 11.1 mph 93% 0.0 in WeatherDisplay:10.37 W/m2 FEW
17:25 3.5 °F 2.5 °F 992.1 in SE 0.3 mph 5.6 mph 93% 0.0 in WeatherDisplay:10.37 W/m2 FEW
17:36 3.5 °F 2.5 °F 992.1 in SSE 1.8 mph 6.4 mph 93% 0.0 in WeatherDisplay:10.37 W/m2 FEW
17:41 3.5 °F 2.5 °F 991.8 in East 0.5 mph 7.4 mph 93% 0.0 in WeatherDisplay:10.37 W/m2 FEW
17:47 3.5 °F 2.5 °F 991.8 in Calm     93% 0.0 in WeatherDisplay:10.37 W/m2 FEW
17:50 3.5 °F 2.5 °F 991.8 in SSE 0.5 mph 1.6 mph 93% 0.0 in WeatherDisplay:10.37 W/m2 FEW
17:56 3.5 °F 2.5 °F 991.8 in ENE 1.3 mph 11.1 mph 93% 0.0 in WeatherDisplay:10.37 W/m2 FEW
18:01 3.6 °F 2.6 °F 991.8 in East 0.8 mph 4.8 mph 93% 0.0 in WeatherDisplay:10.37 W/m2 FEW
18:06 3.6 °F 2.6 °F 991.8 in SSE 1.4 mph 8.0 mph 93% 0.0 in WeatherDisplay:10.37 W/m2 FEW
18:11 3.6 °F 2.6 °F 991.8 in Calm   5.6 mph 93% 0.0 in WeatherDisplay:10.37 W/m2 FEW
18:12 3.6 °F 2.6 °F 991.8 in SE 2.4 mph 8.0 mph 93% 0.0 in WeatherDisplay:10.37 W/m2 FEW
18:17 3.6 °F 2.6 °F 991.8 in ESE 1.0 mph 7.4 mph 93% 0.0 in WeatherDisplay:10.37 W/m2 FEW
18:22 3.6 °F 2.6 °F 991.4 in SSW 2.6 mph 4.8 mph 93% 0.0 in WeatherDisplay:10.37 W/m2 FEW
18:27 3.6 °F 2.6 °F 991.4 in ENE 0.2 mph 1.9 mph 93% 0.0 in WeatherDisplay:10.37 W/m2 FEW
18:32 3.6 °F 2.6 °F 991.4 in SE 0.2 mph 3.7 mph 93% 0.0 in WeatherDisplay:10.37 W/m2 FEW
18:38 3.6 °F 2.6 °F 991.4 in NNE 0.3 mph 8.0 mph 93% 0.0 in WeatherDisplay:10.37 W/m2 FEW
18:43 3.6 °F 2.6 °F 991.4 in East 0.5 mph 5.6 mph 93% 0.3 in WeatherDisplay:10.37 W/m2 RA
18:49 3.6 °F 2.6 °F 991.4 in ESE 1.4 mph 5.6 mph 93% 0.3 in WeatherDisplay:10.37 W/m2 RA
18:54 3.6 °F 2.6 °F 991.4 in Calm   7.4 mph 93% 0.3 in WeatherDisplay:10.37 W/m2 FEW
18:59 3.6 °F 2.6 °F 991.4 in SE 0.2 mph 4.8 mph 93% 0.3 in WeatherDisplay:10.37 W/m2 FEW
19:04 3.6 °F 2.6 °F 991.4 in SSE 3.5 mph 3.7 mph 93% 0.3 in WeatherDisplay:10.37 W/m2 FEW
19:09 3.6 °F 2.6 °F 991.4 in ESE 2.4 mph 5.6 mph 93% 0.3 in WeatherDisplay:10.37 W/m2 FEW
19:12 3.6 °F 2.6 °F 991.4 in East 2.7 mph 13.0 mph 93% 0.3 in WeatherDisplay:10.37 W/m2 FEW
19:17 3.6 °F 2.6 °F 991.4 in South 3.2 mph 9.3 mph 93% 0.3 in WeatherDisplay:10.37 W/m2 FEW
19:22 3.6 °F 2.6 °F 991.1 in SE 5.0 mph 16.1 mph 93% 0.3 in WeatherDisplay:10.37 W/m2 FEW
19:27 3.6 °F 2.6 °F 991.1 in SE 5.1 mph 11.1 mph 93% 0.3 in WeatherDisplay:10.37 W/m2 FEW
19:32 3.6 °F 2.6 °F 991.1 in SE 3.7 mph 11.1 mph 93% 0.3 in WeatherDisplay:10.37 W/m2 FEW
19:39 3.5 °F 2.5 °F 991.1 in SSE 2.6 mph 9.7 mph 93% 0.5 in WeatherDisplay:10.37 W/m2 RA
19:43 3.5 °F 2.5 °F 991.1 in ESE 1.9 mph 7.4 mph 93% 0.5 in WeatherDisplay:10.37 W/m2 RA
19:48 3.4 °F 2.4 °F 991.1 in East 8.0 mph 16.7 mph 93% 0.5 in WeatherDisplay:10.37 W/m2 RA
19:53 3.4 °F 2.4 °F 991.1 in Calm     93% 0.8 in WeatherDisplay:10.37 W/m2 RA
20:03 3.4 °F 2.4 °F 991.1 in WNW 3.1 mph 16.7 mph 93% 0.8 in WeatherDisplay:10.37 W/m2 FEW
20:06 3.4 °F 2.4 °F 990.7 in SE 4.3 mph 9.3 mph 93% 0.8 in WeatherDisplay:10.37 W/m2 FEW
20:12 3.4 °F 2.4 °F 990.7 in Calm   9.3 mph 93% 1.0 in WeatherDisplay:10.37 W/m2 RA
20:16 3.4 °F 2.4 °F 990.7 in SSE 7.1 mph 13.0 mph 93% 1.0 in WeatherDisplay:10.37 W/m2 RA
20:21 3.4 °F 2.4 °F 990.7 in SE 8.2 mph 16.7 mph 93% 1.0 in WeatherDisplay:10.37 W/m2 FEW
20:27 3.4 °F 2.4 °F 990.7 in Calm   5.6 mph 93% 1.3 in WeatherDisplay:10.37 W/m2 RA
20:32 3.4 °F 2.4 °F 990.7 in South 1.9 mph 7.4 mph 93% 1.5 in WeatherDisplay:10.37 W/m2 RA
20:37 3.4 °F 2.4 °F 990.7 in Calm     93% 1.5 in WeatherDisplay:10.37 W/m2 RA
20:43 3.3 °F 2.3 °F 990.7 in South 0.2 mph 5.6 mph 93% 1.5 in WeatherDisplay:10.37 W/m2 RA
20:48 3.2 °F 2.2 °F 990.7 in ESE 6.1 mph 18.5 mph 93% 1.5 in WeatherDisplay:10.37 W/m2 RA
20:53 3.2 °F 2.2 °F 990.7 in SSE 9.8 mph 17.7 mph 93% 1.3 in WeatherDisplay:10.37 W/m2 RA
20:58 3.2 °F 2.2 °F 990.7 in ENE 1.3 mph 5.6 mph 93% 1.5 in WeatherDisplay:10.37 W/m2 RA
21:03 3.2 °F 2.2 °F 990.7 in SSW 2.1 mph 9.3 mph 93% 1.5 in WeatherDisplay:10.37 W/m2 RA
21:09 3.2 °F 2.2 °F 990.7 in ENE 9.8 mph 14.5 mph 93% 1.8 in WeatherDisplay:10.37 W/m2 RA
21:14 3.2 °F 2.2 °F 990.7 in ESE 1.0 mph 9.3 mph 93% 1.5 in WeatherDisplay:10.37 W/m2 RA
21:19 3.1 °F 2.1 °F 990.7 in SE 1.0 mph 9.7 mph 93% 1.8 in WeatherDisplay:10.37 W/m2 RA
21:20 3.1 °F 2.1 °F 990.7 in South 4.0 mph 9.7 mph 93% 1.8 in WeatherDisplay:10.37 W/m2 RA
21:25 3.1 °F 2.1 °F 990.7 in Calm     93% 1.8 in WeatherDisplay:10.37 W/m2 RA
21:30 3.1 °F 2.1 °F 990.4 in ENE 2.6 mph 9.7 mph 93% 1.5 in WeatherDisplay:10.37 W/m2 RA
21:35 3.1 °F 2.1 °F 990.4 in SSE 1.6 mph 5.6 mph 93% 1.8 in WeatherDisplay:10.37 W/m2 RA
21:39 3.1 °F 2.1 °F 990.4 in East 7.7 mph 16.7 mph 93% 1.5 in WeatherDisplay:10.37 W/m2 RA
21:44 3.1 °F 2.1 °F 990.4 in East 5.3 mph 13.0 mph 93% 1.5 in WeatherDisplay:10.37 W/m2 RA
21:49 3.1 °F 2.1 °F 990.4 in ESE 2.9 mph 5.6 mph 93% 1.5 in WeatherDisplay:10.37 W/m2 RA
21:54 3.1 °F 2.1 °F 990.4 in SSE 5.8 mph 11.1 mph 93% 1.5 in WeatherDisplay:10.37 W/m2 FEW
21:59 3.1 °F 2.1 °F 990.4 in ESE 2.1 mph 11.1 mph 93% 1.5 in WeatherDisplay:10.37 W/m2 RA
22:00 3.1 °F 2.1 °F 990.4 in SE 3.2 mph 5.6 mph 93% 1.5 in WeatherDisplay:10.37 W/m2 RA
22:05 3.1 °F 2.1 °F 990.4 in SE 5.3 mph 9.3 mph 93% 1.3 in WeatherDisplay:10.37 W/m2 RA
22:10 3.1 °F 2.1 °F 990.4 in SE 4.7 mph 11.3 mph 93% 1.0 in WeatherDisplay:10.37 W/m2 FEW
22:15 3.1 °F 2.1 °F 990.1 in SE 1.4 mph 7.4 mph 93% 0.8 in WeatherDisplay:10.37 W/m2 FEW
22:20 3.1 °F 2.1 °F 990.4 in SE 1.4 mph 14.8 mph 93% 1.0 in WeatherDisplay:10.37 W/m2 RA
22:25 3.1 °F 2.1 °F 990.4 in Calm   5.6 mph 93% 0.8 in WeatherDisplay:10.37 W/m2 RA
22:30 3.1 °F 2.1 °F 990.4 in ENE 2.9 mph 5.6 mph 93% 0.8 in WeatherDisplay:10.37 W/m2 FEW
22:36 3.1 °F 2.1 °F 990.4 in ESE 4.8 mph 9.3 mph 93% 0.5 in WeatherDisplay:10.37 W/m2 FEW
22:41 3.1 °F 2.1 °F 990.4 in SE 0.3 mph 6.4 mph 93% 0.5 in WeatherDisplay:10.37 W/m2 FEW
22:46 3.1 °F 2.1 °F 990.4 in SE 1.1 mph 5.6 mph 93% 0.5 in WeatherDisplay:10.37 W/m2 FEW
22:48 3.1 °F 2.1 °F 990.4 in SSE 0.6 mph 4.8 mph 93% 0.5 in WeatherDisplay:10.37 W/m2 FEW
22:53 3.1 °F 2.1 °F 990.1 in ESE 3.5 mph 11.1 mph 93% 0.5 in WeatherDisplay:10.37 W/m2 FEW
22:58 3.1 °F 2.1 °F 990.1 in Calm     93% 0.3 in WeatherDisplay:10.37 W/m2 FEW
23:04 3.1 °F 2.1 °F 990.1 in SSE 0.2 mph 1.9 mph 93% 0.3 in WeatherDisplay:10.37 W/m2 FEW
23:07 3.1 °F 2.1 °F 990.1 in Calm     93% 0.3 in WeatherDisplay:10.37 W/m2 FEW
23:12 3.1 °F 2.1 °F 990.1 in Calm     93% 0.3 in WeatherDisplay:10.37 W/m2 FEW
23:17 3.0 °F 2.0 °F 990.1 in SE 0.6 mph 5.6 mph 93% 0.3 in WeatherDisplay:10.37 W/m2 FEW
23:18 3.1 °F 2.1 °F 990.1 in Calm     93% 0.3 in WeatherDisplay:10.37 W/m2 FEW
23:23 3.0 °F 2.0 °F 990.1 in Calm   1.9 mph 93% 0.3 in WeatherDisplay:10.37 W/m2 RA
23:28 3.0 °F 2.0 °F 990.1 in Calm   1.9 mph 93% 0.3 in WeatherDisplay:10.37 W/m2 RA
23:33 3.0 °F 2.0 °F 990.1 in SSE 3.4 mph 5.6 mph 93% 0.5 in WeatherDisplay:10.37 W/m2 RA
23:36 3.0 °F 2.0 °F 990.1 in Calm     93% 0.5 in WeatherDisplay:10.37 W/m2 RA
23:41 3.0 °F 2.0 °F 990.1 in Calm     93% 0.5 in WeatherDisplay:10.37 W/m2 RA
23:47 3.0 °F 2.0 °F 990.1 in Calm     93% 0.5 in WeatherDisplay:10.37 W/m2 RA
23:52 2.9 °F 1.9 °F 990.1 in Calm     93% 0.5 in WeatherDisplay:10.37 W/m2 RA
23:54 2.9 °F 1.9 °F 990.1 in Calm     93% 0.8 in WeatherDisplay:10.37 W/m2 RA
23:59 2.9 °F 1.9 °F 990.1 in Calm     93% 0.8 in WeatherDisplay:10.37 W/m2 RA
Tuulensuunkaari, Veikkola, Suomi
Compliments of Weather Underground - 2.75 mb